Time;durP1;ratioP1;P1;durP2;ratioP2;P2;SDS_P1;SDS_P2;PMS_P1;PMS_P2;Temp;Humidity;BMP_temperature;BMP_pressure;BME280_temperature;BME280_humidity;BME280_pressure;Samples;Min_cycle;Max_cycle;Signal;HPM_P1;HPM_P2
2022/07/18 00:01:46;;;;;;;4.00;1.35;;;;;;;14.57;51.95;98084.56;4979877;28;20184;-52
2022/07/18 00:04:12;;;;;;;1.98;1.15;;;;;;;14.60;51.84;98085.97;4985935;28;20050;-55
2022/07/18 00:06:39;;;;;;;3.95;1.30;;;;;;;14.52;52.49;98083.72;4984963;28;20039;-55
2022/07/18 00:09:05;;;;;;;3.95;1.50;;;;;;;14.62;51.67;98089.25;4986043;28;20121;-54
2022/07/18 00:11:32;;;;;;;3.30;1.42;;;;;;;14.68;51.69;98081.94;4985895;28;20101;-52
2022/07/18 00:13:58;;;;;;;5.70;1.70;;;;;;;14.61;52.28;98084.88;4985587;28;20119;-55
2022/07/18 00:16:25;;;;;;;3.45;1.52;;;;;;;14.52;52.36;98087.25;4985661;28;20053;-57
2022/07/18 00:18:52;;;;;;;2.83;1.48;;;;;;;14.42;52.79;98089.91;4985745;28;20108;-53
2022/07/18 00:21:18;;;;;;;3.25;1.95;;;;;;;14.34;52.75;98083.00;4985147;28;20449;-53
2022/07/18 00:23:45;;;;;;;3.25;1.63;;;;;;;14.27;52.76;98088.69;4985973;28;20097;-55
2022/07/18 00:26:11;;;;;;;2.65;1.40;;;;;;;14.25;52.91;98088.13;4984736;28;20038;-56
2022/07/18 00:28:38;;;;;;;3.40;1.50;;;;;;;14.19;53.26;98089.16;4986095;28;20108;-54
2022/07/18 00:31:04;;;;;;;2.85;1.50;;;;;;;14.17;53.46;98089.44;4985296;28;20053;-55
2022/07/18 00:33:31;;;;;;;4.35;1.42;;;;;;;14.07;53.62;98086.59;4985209;28;20121;-53
2022/07/18 00:35:58;;;;;;;4.22;1.75;;;;;;;14.01;53.77;98084.91;4982209;28;20046;-56
2022/07/18 00:38:24;;;;;;;3.30;1.35;;;;;;;13.95;54.12;98075.88;4985129;28;20070;-55
2022/07/18 00:40:51;;;;;;;6.28;1.23;;;;;;;14.00;53.97;98080.53;4986214;28;20493;-57
2022/07/18 00:43:17;;;;;;;3.53;1.42;;;;;;;14.02;53.93;98081.09;4985666;28;20526;-54
2022/07/18 00:45:49;;;;;;;4.30;1.60;;;;;;;13.94;54.02;98076.94;4984954;28;20046;-56
2022/07/18 00:48:16;;;;;;;3.25;1.48;;;;;;;13.99;53.90;98079.72;4985779;28;20038;-53
2022/07/18 00:50:43;;;;;;;3.47;1.63;;;;;;;14.00;54.01;98073.19;4987353;28;20042;-54
2022/07/18 00:53:11;;;;;;;5.40;1.65;;;;;;;13.98;53.96;98066.34;4989783;28;20651;-53
2022/07/18 00:55:46;;;;;;;5.43;1.42;;;;;;;13.85;54.55;98065.69;4988778;28;20065;-56
2022/07/18 00:58:13;;;;;;;2.97;1.63;;;;;;;13.86;54.02;98067.31;4988879;28;20521;-54
2022/07/18 01:03:25;;;;;;;3.90;1.50;;;;;;;13.82;54.36;98079.00;4988484;28;20046;-54
2022/07/18 01:05:52;;;;;;;3.33;1.70;;;;;;;13.89;54.08;98071.44;4988661;28;20061;-56
2022/07/18 01:08:19;;;;;;;2.92;1.50;;;;;;;13.77;54.60;98071.59;4988817;28;20580;-57
2022/07/18 01:10:45;;;;;;;2.90;1.40;;;;;;;13.78;54.62;98076.78;4988630;28;20046;-54
2022/07/18 01:13:12;;;;;;;3.60;1.45;;;;;;;13.65;54.94;98072.53;4988510;28;20509;-54
2022/07/18 01:15:39;;;;;;;5.00;1.40;;;;;;;13.70;54.58;98063.63;4988196;28;20250;-52
2022/07/18 01:18:05;;;;;;;3.08;1.63;;;;;;;13.63;54.84;98069.25;4989086;28;20046;-57
2022/07/18 01:20:32;;;;;;;3.88;1.60;;;;;;;13.70;54.65;98065.50;4988648;28;20080;-53
2022/07/18 01:22:59;;;;;;;4.50;1.35;;;;;;;13.75;54.64;98060.16;4988222;28;20046;-54
2022/07/18 01:25:27;;;;;;;2.78;1.55;;;;;;;13.85;54.07;98065.69;4988421;28;20055;-56
2022/07/18 01:27:55;;;;;;;2.72;1.58;;;;;;;13.85;54.23;98062.13;4988217;28;20255;-54
2022/07/18 01:30:22;;;;;;;3.92;1.77;;;;;;;13.65;54.91;98064.38;4988631;28;20057;-57
2022/07/18 01:32:55;;;;;;;2.85;1.45;;;;;;;13.74;54.53;98064.75;4989019;28;20068;-56
2022/07/18 01:35:23;;;;;;;4.30;1.48;;;;;;;13.90;53.77;98068.47;4987344;28;20046;-55
2022/07/18 01:37:53;;;;;;;5.70;1.60;;;;;;;13.90;53.86;98067.66;4988263;28;20046;-54
2022/07/18 01:40:20;;;;;;;2.97;1.48;;;;;;;13.93;53.52;98067.13;4975411;28;20046;-56
2022/07/18 01:42:47;;;;;;;2.78;1.45;;;;;;;13.98;53.27;98067.19;4988036;28;20046;-56
2022/07/18 01:45:15;;;;;;;3.08;1.52;;;;;;;14.04;52.83;98068.88;4988468;28;20863;-54
2022/07/18 01:47:42;;;;;;;4.22;1.80;;;;;;;13.95;53.42;98064.97;4986712;28;20061;-54
2022/07/18 01:50:10;;;;;;;3.28;1.63;;;;;;;13.98;53.33;98063.63;4988153;28;20046;-58
2022/07/18 01:52:37;;;;;;;4.32;1.73;;;;;;;13.93;53.29;98061.66;4988004;28;20054;-57
2022/07/18 01:55:05;;;;;;;2.85;1.23;;;;;;;13.96;53.05;98065.81;4980944;28;20388;-56
2022/07/18 01:57:32;;;;;;;5.72;1.40;;;;;;;13.96;53.28;98068.53;4987076;28;20046;-58
2022/07/18 01:59:59;;;;;;;4.57;1.50;;;;;;;13.84;53.98;98064.06;4987070;28;20050;-56
2022/07/18 02:02:25;;;;;;;4.35;1.58;;;;;;;13.74;54.17;98063.94;4988061;28;20058;-53
2022/07/18 02:05:02;;;;;;;4.60;1.67;;;;;;;13.64;54.85;98061.94;4987966;28;20485;-56
2022/07/18 02:07:31;;;;;;;4.50;1.70;;;;;;;13.49;55.25;98065.31;4987098;28;20142;-57
2022/07/18 02:09:59;;;;;;;4.25;1.92;;;;;;;13.40;55.75;98064.88;4987500;28;20050;-57
2022/07/18 02:12:27;;;;;;;2.97;1.50;;;;;;;13.42;55.31;98070.06;4977560;28;20050;-52
2022/07/18 02:14:53;;;;;;;10.00;2.47;;;;;;;13.40;55.79;98071.16;4988251;28;20042;-53
2022/07/18 02:17:20;;;;;;;5.30;1.60;;;;;;;13.19;56.46;98063.81;4987382;28;20053;-57
2022/07/18 02:19:47;;;;;;;4.63;1.92;;;;;;;13.14;56.88;98065.41;4988195;28;20042;-56
2022/07/18 02:22:14;;;;;;;4.78;1.42;;;;;;;13.17;57.14;98071.38;4987334;28;20042;-53
2022/07/18 02:24:40;;;;;;;2.45;1.40;;;;;;;13.05;57.01;98069.59;4987477;28;20394;-54
2022/07/18 02:27:07;;;;;;;4.50;1.70;;;;;;;13.11;56.64;98067.78;4987310;28;20097;-57
2022/07/18 02:29:34;;;;;;;5.47;1.50;;;;;;;13.03;57.04;98069.03;4987941;28;20101;-55
2022/07/18 02:32:00;;;;;;;5.10;1.55;;;;;;;13.01;57.27;98057.56;4987428;28;20036;-53
2022/07/18 02:34:27;;;;;;;5.78;1.73;;;;;;;12.96;57.47;98063.78;4987730;28;20080;-55
2022/07/18 02:36:54;;;;;;;3.25;1.50;;;;;;;12.96;57.57;98063.78;4987037;28;20097;-50
2022/07/18 02:39:20;;;;;;;4.72;1.60;;;;;;;12.94;57.62;98060.47;4987542;28;20057;-53
2022/07/18 02:41:47;;;;;;;5.22;1.95;;;;;;;12.91;57.46;98061.00;4986987;28;20077;-53
2022/07/18 02:44:14;;;;;;;21.15;3.78;;;;;;;12.95;57.63;98056.72;4987176;28;20053;-57
2022/07/18 02:46:41;;;;;;;4.55;1.63;;;;;;;12.98;57.40;98064.34;4987007;28;20060;-54
2022/07/18 02:49:07;;;;;;;2.65;1.40;;;;;;;13.02;57.08;98061.97;4984298;28;20077;-56
2022/07/18 02:51:34;;;;;;;3.33;1.40;;;;;;;13.01;57.25;98054.84;4986786;28;20050;-55
2022/07/18 02:54:01;;;;;;;3.42;1.60;;;;;;;12.92;57.75;98057.19;4987534;28;20051;-52
2022/07/18 02:56:27;;;;;;;2.40;1.40;;;;;;;12.81;57.98;98061.66;4985250;28;20046;-51
2022/07/18 02:58:54;;;;;;;4.15;1.85;;;;;;;12.77;58.29;98057.81;4986570;28;20053;-53
2022/07/18 03:01:20;;;;;;;4.40;1.75;;;;;;;12.65;58.82;98060.63;4986648;28;20390;-52
2022/07/18 03:03:47;;;;;;;5.22;1.40;;;;;;;12.65;58.46;98055.19;4986554;28;20510;-55
2022/07/18 03:06:14;;;;;;;5.28;1.55;;;;;;;12.59;58.67;98067.88;4985860;28;20113;-56
2022/07/18 03:08:41;;;;;;;3.65;1.38;;;;;;;12.62;58.89;98066.56;4986515;28;20053;-52
2022/07/18 03:11:07;;;;;;;4.43;1.52;;;;;;;12.59;59.10;98061.59;4982664;28;20488;-53
2022/07/18 03:13:34;;;;;;;2.95;1.60;;;;;;;12.52;59.00;98069.91;4986327;28;20050;-56
2022/07/18 03:16:00;;;;;;;5.65;1.70;;;;;;;12.54;58.96;98067.78;4986482;28;20540;-56
2022/07/18 03:18:27;;;;;;;5.93;2.15;;;;;;;12.50;59.00;98074.78;4986368;28;20121;-56
2022/07/18 03:20:54;;;;;;;2.95;1.52;;;;;;;12.53;59.01;98074.28;4986283;28;20123;-52
2022/07/18 03:23:20;;;;;;;4.32;1.30;;;;;;;12.42;59.38;98073.28;4986780;28;20050;-57
2022/07/18 03:25:47;;;;;;;5.55;2.00;;;;;;;12.33;59.65;98075.63;4985750;28;20120;-51
2022/07/18 03:28:14;;;;;;;4.45;1.77;;;;;;;12.40;59.28;98070.00;4986710;28;20510;-55
2022/07/18 03:30:41;;;;;;;6.25;1.83;;;;;;;12.45;58.95;98072.81;4986286;28;20050;-56
2022/07/18 03:33:07;;;;;;;3.53;1.75;;;;;;;12.45;59.16;98072.81;4984318;28;20050;-56
2022/07/18 03:35:34;;;;;;;4.47;1.50;;;;;;;12.35;59.74;98073.47;4984077;28;20288;-54
2022/07/18 03:38:01;;;;;;;4.10;1.45;;;;;;;12.32;59.77;98065.78;4984365;28;20113;-56
2022/07/18 03:40:27;;;;;;;5.97;1.50;;;;;;;12.26;59.58;98068.66;4976934;28;20038;-54
2022/07/18 03:42:54;;;;;;;3.97;1.27;;;;;;;12.20;59.85;98067.78;4995045;28;20046;-57
2022/07/18 03:45:21;;;;;;;6.57;1.42;;;;;;;12.29;59.62;98065.47;4985668;28;20457;-57
2022/07/18 03:47:47;;;;;;;3.38;1.60;;;;;;;12.39;59.14;98068.38;4982512;28;20125;-56
2022/07/18 03:50:14;;;;;;;4.03;1.73;;;;;;;12.52;58.45;98075.34;4983417;28;20053;-56
2022/07/18 03:52:40;;;;;;;3.85;1.73;;;;;;;12.53;58.65;98074.28;4984557;28;21847;-55
2022/07/18 03:55:08;;;;;;;3.63;1.73;;;;;;;12.60;58.05;98077.66;4983888;28;20051;-54
2022/07/18 03:57:35;;;;;;;8.63;2.67;;;;;;;12.62;58.42;98074.69;4985053;28;20038;-55
2022/07/18 04:00:03;;;;;;;3.60;1.70;;;;;;;12.67;58.08;98061.19;4985968;28;20390;-55
2022/07/18 04:02:39;;;;;;;4.60;1.67;;;;;;;12.52;58.62;98075.34;4985620;28;20054;-56
2022/07/18 04:05:06;;;;;;;4.40;1.38;;;;;;;12.56;58.77;98062.09;4985332;28;20438;-54
2022/07/18 04:07:33;;;;;;;5.35;1.80;;;;;;;12.58;58.48;98060.81;4983249;28;20344;-57
2022/07/18 04:09:59;;;;;;;5.85;1.80;;;;;;;12.67;58.39;98068.50;4983297;28;20461;-54
2022/07/18 04:12:26;;;;;;;3.35;1.52;;;;;;;12.80;57.97;98070.91;4984053;28;20046;-57
2022/07/18 04:14:52;;;;;;;5.07;1.65;;;;;;;13.04;56.70;98067.16;4983679;28;20054;-55
2022/07/18 04:17:19;;;;;;;3.10;1.60;;;;;;;13.23;56.48;98065.75;4983421;28;20297;-55
2022/07/18 04:19:45;;;;;;;3.35;1.52;;;;;;;13.57;55.45;98067.56;4983874;28;20600;-54
2022/07/18 04:22:12;;;;;;;2.92;1.40;;;;;;;13.67;54.83;98061.41;4983553;28;20683;-53
2022/07/18 04:24:38;;;;;;;4.50;1.42;;;;;;;13.81;54.75;98066.47;4985048;28;20073;-57
2022/07/18 04:27:05;;;;;;;4.18;1.63;;;;;;;13.64;54.79;98068.19;4987193;28;20505;-56
2022/07/18 04:29:32;;;;;;;3.30;1.52;;;;;;;13.61;55.24;98068.72;4987587;28;20506;-54
2022/07/18 04:31:58;;;;;;;3.85;1.45;;;;;;;13.69;54.89;98066.59;4987567;28;20054;-57
2022/07/18 04:34:25;;;;;;;3.38;1.60;;;;;;;13.84;54.34;98063.22;4986655;28;20039;-56
2022/07/18 04:36:51;;;;;;;3.63;1.42;;;;;;;13.81;54.66;98067.28;4987838;28;20097;-53
2022/07/18 04:39:18;;;;;;;5.25;1.73;;;;;;;13.62;55.02;98064.91;4987353;28;20043;-57
2022/07/18 04:41:44;;;;;;;2.05;1.20;;;;;;;13.68;55.41;98067.69;4987293;28;20050;-57
2022/07/18 04:44:11;;;;;;;3.22;1.52;;;;;;;13.56;55.68;98063.19;4986402;28;20062;-57
2022/07/18 04:46:38;;;;;;;3.13;1.50;;;;;;;13.72;55.37;98071.53;4986115;28;20238;-57
2022/07/18 04:49:04;;;;;;;2.97;1.52;;;;;;;14.04;54.70;98076.22;4986963;28;20054;-57
2022/07/18 04:51:32;;;;;;;4.20;2.10;;;;;;;13.96;54.63;98074.78;4987639;28;20345;-57
2022/07/18 04:53:58;;;;;;;5.50;2.30;;;;;;;14.31;53.98;98067.22;4984406;28;20049;-55
2022/07/18 04:56:25;;;;;;;5.13;2.42;;;;;;;14.60;52.06;98064.19;4987412;28;20101;-52
2022/07/18 04:58:51;;;;;;;3.33;1.70;;;;;;;14.58;52.39;98060.88;4986980;28;20282;-57
2022/07/18 05:01:18;;;;;;;6.95;1.65;;;;;;;14.79;52.48;98055.59;4986697;28;20054;-57
2022/07/18 05:03:44;;;;;;;5.13;1.70;;;;;;;14.80;52.64;98059.97;4986742;28;20046;-55
2022/07/18 05:06:11;;;;;;;3.92;1.50;;;;;;;14.73;52.98;98059.34;4985755;28;20398;-56
2022/07/18 05:08:38;;;;;;;3.28;1.55;;;;;;;14.86;52.49;98058.94;4985991;28;20398;-54
2022/07/18 05:11:04;;;;;;;6.72;2.30;;;;;;;14.95;52.55;98057.34;4986369;28;20058;-58
2022/07/18 05:13:31;;;;;;;4.78;2.15;;;;;;;15.03;52.66;98057.91;4985211;28;20050;-53
2022/07/18 05:15:57;;;;;;;6.07;1.50;;;;;;;15.15;52.64;98055.00;4989269;28;20038;-54
2022/07/18 05:18:24;;;;;;;6.28;1.48;;;;;;;15.18;52.72;98057.16;4988291;28;20097;-57
2022/07/18 05:20:50;;;;;;;3.85;1.60;;;;;;;15.22;53.26;98061.00;4983919;28;20105;-58
2022/07/18 05:23:17;;;;;;;3.40;1.42;;;;;;;15.32;53.06;98058.34;4984421;28;20100;-55
2022/07/18 05:25:44;;;;;;;5.00;1.83;;;;;;;15.43;52.83;98058.38;4986471;28;20414;-57
2022/07/18 05:28:10;;;;;;;5.18;1.50;;;;;;;15.60;52.56;98058.97;4986899;28;20461;-58
2022/07/18 05:30:37;;;;;;;4.40;1.30;;;;;;;15.71;52.83;98054.38;4986736;28;20046;-56
2022/07/18 05:33:04;;;;;;;4.38;1.50;;;;;;;15.83;52.55;98050.56;4986658;28;20038;-55
2022/07/18 05:35:31;;;;;;;4.57;1.33;;;;;;;15.95;51.85;98056.66;4986191;28;20525;-55
2022/07/18 05:37:57;;;;;;;3.60;1.45;;;;;;;16.11;51.97;98059.41;4985899;28;20057;-58
2022/07/18 05:40:24;;;;;;;3.63;1.20;;;;;;;16.29;51.63;98059.97;4986615;28;20109;-58
2022/07/18 05:42:51;;;;;;;4.53;2.17;;;;;;;16.46;51.27;98055.03;4985771;28;20532;-57
2022/07/18 05:45:21;;;;;;;5.28;2.10;;;;;;;16.64;50.60;98061.03;4987077;28;20057;-57
2022/07/18 05:47:48;;;;;;;3.38;1.35;;;;;;;16.80;50.17;98061.84;4985832;28;20567;-58
2022/07/18 05:50:15;;;;;;;4.55;1.50;;;;;;;17.01;49.75;98062.63;4986132;28;20050;-57
2022/07/18 05:52:41;;;;;;;4.80;1.85;;;;;;;17.19;49.91;98056.84;4983209;28;20097;-58
2022/07/18 05:55:09;;;;;;;8.02;2.33;;;;;;;17.37;48.65;98063.63;4987600;28;20108;-56
2022/07/18 05:57:35;;;;;;;4.68;1.67;;;;;;;17.54;47.95;98064.09;4987857;28;20057;-56
2022/07/18 06:00:04;;;;;;;2.75;1.45;;;;;;;17.75;47.19;98060.44;4988031;28;20108;-54
2022/07/18 06:02:34;;;;;;;4.70;1.40;;;;;;;17.99;46.93;98057.81;4984252;28;20058;-69
2022/07/18 06:05:00;;;;;;;2.85;1.20;;;;;;;18.28;45.60;98061.78;4984106;28;20050;-69
2022/07/18 06:07:47;;;;;;;3.17;1.55;;;;;;;18.46;44.83;98054.78;4977302;28;20054;-70
2022/07/18 06:10:14;;;;;;;3.47;1.10;;;;;;;18.52;44.69;98059.13;4983814;28;20061;-71
2022/07/18 06:12:40;;;;;;;4.05;1.27;;;;;;;18.55;43.92;98054.97;4985348;28;20050;-69
2022/07/18 06:15:07;;;;;;;4.25;1.60;;;;;;;18.72;42.40;98055.38;4984766;28;20240;-69
2022/07/18 06:17:34;;;;;;;3.58;1.30;;;;;;;18.88;42.53;98059.88;4984868;28;20058;-69
2022/07/18 06:20:00;;;;;;;2.00;1.10;;;;;;;19.13;42.08;98063.50;4984544;28;20061;-70
2022/07/18 06:22:27;;;;;;;4.20;1.60;;;;;;;19.29;42.37;98061.41;4987659;28;20049;-69
2022/07/18 06:24:54;;;;;;;3.35;1.98;;;;;;;19.39;41.82;98063.22;4987822;28;20088;-71
2022/07/18 06:27:20;;;;;;;2.90;1.45;;;;;;;19.51;41.37;98049.88;4987136;28;20571;-69
2022/07/18 06:29:47;;;;;;;3.30;1.50;;;;;;;19.55;41.02;98061.91;4987565;28;20050;-69
2022/07/18 06:32:13;;;;;;;3.90;1.35;;;;;;;19.61;41.47;98060.72;4980977;28;20248;-69
2022/07/18 06:34:40;;;;;;;5.22;1.42;;;;;;;19.63;41.49;98052.19;4984664;28;20485;-69
2022/07/18 06:37:06;;;;;;;4.63;1.48;;;;;;;19.77;41.01;98055.03;4985306;28;20053;-69
2022/07/18 06:39:33;;;;;;;3.75;1.42;;;;;;;19.95;40.48;98055.31;4984949;28;20077;-69
2022/07/18 06:41:59;;;;;;;5.82;1.25;;;;;;;20.11;40.34;98055.94;4985746;28;20421;-69
2022/07/18 06:44:26;;;;;;;2.58;1.20;;;;;;;20.19;39.51;98051.72;4984874;28;20042;-69
2022/07/18 06:46:52;;;;;;;3.90;1.38;;;;;;;20.24;39.20;98051.63;4983953;28;20050;-69
2022/07/18 06:49:20;;;;;;;2.97;1.00;;;;;;;20.37;39.07;98052.78;4984880;28;20056;-69
2022/07/18 06:51:46;;;;;;;2.47;1.20;;;;;;;20.54;39.10;98047.53;4984817;28;20046;-69
2022/07/18 06:54:13;;;;;;;4.53;1.40;;;;;;;20.70;39.50;98049.19;4985146;28;20046;-71
2022/07/18 06:56:39;;;;;;;5.50;1.45;;;;;;;20.90;38.23;98050.81;4984227;28;20054;-68
2022/07/18 06:59:06;;;;;;;5.80;1.30;;;;;;;20.98;38.63;98039.13;4984879;28;20054;-67
2022/07/18 07:01:32;;;;;;;4.05;1.50;;;;;;;21.20;38.97;98045.84;4984546;28;20058;-69
2022/07/18 07:03:59;;;;;;;3.35;1.48;;;;;;;21.43;36.93;98045.94;4984499;28;20081;-69
2022/07/18 07:06:26;;;;;;;3.92;1.60;;;;;;;21.53;37.08;98042.16;4984727;28;20096;-69
2022/07/18 07:08:53;;;;;;;5.03;1.23;;;;;;;21.93;35.11;98044.34;4984377;28;20042;-69
2022/07/18 07:11:21;;;;;;;2.80;1.20;;;;;;;21.87;36.39;98043.66;4984348;28;20043;-69
2022/07/18 07:13:49;;;;;;;3.33;1.30;;;;;;;21.79;36.90;98038.88;4985010;28;20321;-70
2022/07/18 07:16:16;;;;;;;3.22;1.20;;;;;;;21.77;36.61;98035.59;4984332;28;20536;-69
2022/07/18 07:18:42;;;;;;;4.22;1.48;;;;;;;21.90;33.59;98045.78;4985053;28;20101;-70
2022/07/18 07:21:09;;;;;;;2.78;1.30;;;;;;;22.06;32.66;98049.00;4984152;28;20509;-69
2022/07/18 07:23:35;;;;;;;2.50;1.48;;;;;;;22.29;32.33;98049.00;4974634;28;20055;-68
2022/07/18 07:26:02;;;;;;;2.97;1.55;;;;;;;22.39;31.71;98053.47;4984059;28;20039;-68
2022/07/18 07:28:29;;;;;;;3.13;1.40;;;;;;;22.60;32.11;98050.22;4984411;28;20046;-68
2022/07/18 07:30:55;;;;;;;3.78;1.40;;;;;;;22.80;31.93;98051.63;4984642;28;20050;-68
2022/07/18 07:33:22;;;;;;;3.70;1.30;;;;;;;22.79;32.09;98050.00;4983783;28;20042;-68
2022/07/18 07:35:48;;;;;;;2.15;1.17;;;;;;;22.72;32.56;98047.69;4984243;28;20042;-68
2022/07/18 07:38:18;;;;;;;3.60;1.92;;;;;;;22.80;31.94;98048.03;4983909;28;20038;-68
2022/07/18 07:40:47;;;;;;;5.72;1.38;;;;;;;22.82;32.00;98043.84;4984734;28;20057;-68
2022/07/18 07:43:16;;;;;;;5.63;1.42;;;;;;;22.99;32.26;98043.13;4984756;28;20050;-68
2022/07/18 07:45:46;;;;;;;4.70;1.58;;;;;;;23.31;31.06;98039.50;4983607;28;20552;-68
2022/07/18 07:48:13;;;;;;;2.28;1.35;;;;;;;23.50;30.46;98042.00;4984543;28;20049;-68
2022/07/18 07:50:39;;;;;;;4.47;1.40;;;;;;;23.50;30.54;98034.53;4984272;28;20550;-68
2022/07/18 07:53:06;;;;;;;2.03;1.00;;;;;;;23.56;30.44;98037.16;4984298;28;20054;-68
2022/07/18 07:55:34;;;;;;;6.22;1.45;;;;;;;23.62;29.92;98027.59;4984050;28;20042;-68
2022/07/18 07:58:00;;;;;;;2.60;1.00;;;;;;;23.71;29.42;98031.19;4984340;28;20043;-68
2022/07/18 08:00:30;;;;;;;2.10;1.27;;;;;;;23.92;29.78;98025.00;4988138;28;20089;-67
2022/07/18 08:03:03;;;;;;;3.22;1.10;;;;;;;24.34;28.11;98035.59;4985301;28;20522;-67
2022/07/18 08:05:32;;;;;;;5.32;1.65;;;;;;;24.32;28.85;98029.56;4987672;28;20490;-68
2022/07/18 08:08:00;;;;;;;2.53;1.45;;;;;;;24.32;29.57;98034.31;4988074;28;20405;-67
2022/07/18 08:10:27;;;;;;;2.17;1.15;;;;;;;24.35;28.58;98034.44;4988241;28;20532;-68
2022/07/18 08:12:54;;;;;;;3.03;1.30;;;;;;;24.26;28.41;98031.72;4975724;28;20509;-67
2022/07/18 08:15:21;;;;;;;3.88;1.20;;;;;;;24.18;29.32;98032.53;4987302;28;20053;-67
2022/07/18 08:17:47;;;;;;;4.38;1.20;;;;;;;24.21;28.81;98031.84;4988183;28;20054;-68
2022/07/18 08:20:16;;;;;;;3.75;1.40;;;;;;;24.35;27.65;98020.63;4986972;28;20046;-68
2022/07/18 08:22:58;;;;;;;4.25;1.40;;;;;;;24.47;27.84;98027.44;4987566;28;20077;-68
2022/07/18 08:25:25;;;;;;;2.95;1.33;;;;;;;24.65;27.16;98025.44;4987182;28;20054;-67
2022/07/18 08:27:52;;;;;;;3.63;1.15;;;;;;;24.90;25.84;98031.25;4987457;28;20129;-67
2022/07/18 08:30:20;;;;;;;2.40;1.30;;;;;;;24.97;26.30;98028.78;4987781;28;20046;-67
2022/07/18 08:32:47;;;;;;;2.70;1.20;;;;;;;24.91;27.07;98030.13;4986688;28;20070;-68
2022/07/18 08:35:13;;;;;;;2.58;1.10;;;;;;;25.20;26.74;98023.78;4987617;28;20502;-68
2022/07/18 08:37:40;;;;;;;4.82;1.30;;;;;;;25.22;26.83;98022.66;4986851;28;20039;-67
2022/07/18 08:40:07;;;;;;;3.17;1.25;;;;;;;25.18;26.82;98022.50;4987482;28;20422;-68
2022/07/18 08:42:34;;;;;;;2.45;1.20;;;;;;;25.14;27.09;98025.13;4987731;28;20056;-68
2022/07/18 08:45:08;;;;;;;3.80;1.48;;;;;;;25.20;27.08;98025.75;4986525;28;20082;-68
2022/07/18 08:47:35;;;;;;;3.15;1.20;;;;;;;25.24;27.16;98021.16;4985784;28;20034;-68
2022/07/18 08:50:02;;;;;;;2.80;1.30;;;;;;;25.37;26.82;98024.84;4989083;28;20516;-68
2022/07/18 08:52:29;;;;;;;3.65;1.48;;;;;;;25.51;27.00;98032.94;4989384;28;20077;-67
2022/07/18 08:55:16;;;;;;;3.35;1.40;;;;;;;25.78;26.58;98030.81;4989342;28;20039;-67
2022/07/18 08:57:52;;;;;;;3.55;1.65;;;;;;;25.73;26.43;98032.97;4989192;28;20129;-67
2022/07/18 09:00:21;;;;;;;3.78;1.55;;;;;;;25.80;26.95;98027.72;4988992;28;20117;-67
2022/07/18 09:02:56;;;;;;;2.85;1.50;;;;;;;25.86;26.69;98025.56;4981181;28;20046;-68
2022/07/18 09:05:23;;;;;;;3.10;1.50;;;;;;;25.97;26.21;98032.31;4988469;28;20054;-68
2022/07/18 09:08:19;;;;;;;2.60;1.52;;;;;;;25.98;26.45;98022.81;4988383;28;20049;-68
2022/07/18 09:10:54;;;;;;;3.42;1.42;;;;;;;26.17;26.15;98030.66;4988304;28;20042;-67
2022/07/18 09:13:34;;;;;;;3.28;1.25;;;;;;;26.18;26.43;98028.72;4989400;28;20414;-67
2022/07/18 09:16:10;;;;;;;3.33;1.60;;;;;;;26.24;26.37;98033.72;4988342;28;20424;-67
2022/07/18 09:18:40;;;;;;;2.30;1.40;;;;;;;26.19;25.49;98033.94;4988780;28;20042;-68
2022/07/18 09:21:07;;;;;;;2.37;1.40;;;;;;;26.12;26.65;98030.88;4988304;28;20050;-67
2022/07/18 09:23:36;;;;;;;2.65;1.40;;;;;;;26.12;26.23;98035.63;4984958;28;20050;-68
2022/07/18 09:26:04;;;;;;;4.72;1.40;;;;;;;26.14;26.52;98033.31;4986488;28;20159;-67
2022/07/18 09:28:50;;;;;;;4.45;1.27;;;;;;;26.40;26.83;98032.28;4986562;28;20046;-68
2022/07/18 09:31:37;;;;;;;2.53;1.25;;;;;;;26.47;26.18;98027.81;4986303;28;20664;-69
2022/07/18 09:34:05;;;;;;;2.78;1.60;;;;;;;26.42;26.16;98024.44;4985881;28;20734;-70
2022/07/18 09:36:36;;;;;;;3.58;1.38;;;;;;;26.35;26.66;98017.47;4978841;28;20100;-69
2022/07/18 09:39:20;;;;;;;3.78;1.40;;;;;;;26.48;28.10;98015.56;4983004;28;20576;-68
2022/07/18 09:41:47;;;;;;;4.72;1.73;;;;;;;26.67;27.68;98013.38;4986642;28;20518;-70
2022/07/18 09:44:18;;;;;;;5.70;2.00;;;;;;;26.83;28.30;98016.34;4986039;28;20046;-70
2022/07/18 09:47:01;;;;;;;;;;;;;;;26.97;28.38;98007.69;4986669;28;20047;-69
2022/07/18 09:49:32;;;;;;;4.82;2.53;;;;;;;27.22;27.99;98005.72;4986374;28;19934;-69
2022/07/18 09:52:07;;;;;;;3.97;1.60;;;;;;;27.35;27.82;98003.75;4985685;28;20046;-69
2022/07/18 09:54:41;;;;;;;4.15;1.60;;;;;;;27.55;27.55;98008.69;4974809;28;20051;-69
2022/07/18 09:57:09;;;;;;;3.58;1.58;;;;;;;27.58;26.62;98011.63;4986096;28;20364;-68
2022/07/18 09:59:36;;;;;;;5.82;1.70;;;;;;;27.64;26.37;98012.22;4986565;28;20065;-70
2022/07/18 10:02:04;;;;;;;4.95;1.88;;;;;;;27.62;26.67;98008.97;4978368;28;20514;-69
2022/07/18 10:04:31;;;;;;;5.13;1.60;;;;;;;27.64;26.23;97998.31;4985716;28;20129;-68
2022/07/18 10:06:58;;;;;;;4.53;1.60;;;;;;;27.47;26.54;98010.47;4985249;28;20050;-71
2022/07/18 10:09:26;;;;;;;5.38;1.70;;;;;;;27.48;26.46;98004.56;4985670;28;20057;-71
2022/07/18 10:11:53;;;;;;;2.78;1.80;;;;;;;27.44;26.62;98002.81;4985688;28;20065;-71
2022/07/18 10:14:29;;;;;;;4.32;1.83;;;;;;;27.44;26.89;98003.63;4985179;28;20057;-70
2022/07/18 10:16:56;;;;;;;5.15;1.83;;;;;;;27.61;26.56;97997.03;5004369;28;20046;-70
2022/07/18 10:19:22;;;;;;;4.30;1.75;;;;;;;27.65;26.43;98002.69;4993316;28;20050;-69
2022/07/18 10:21:49;;;;;;;3.92;1.60;;;;;;;27.94;26.72;98003.56;4984726;28;20050;-68
2022/07/18 10:24:18;;;;;;;8.38;1.70;;;;;;;28.11;25.89;98008.00;4985605;28;20116;-69
2022/07/18 10:26:44;;;;;;;7.47;1.80;;;;;;;28.10;26.16;98000.00;4985090;28;20101;-69
2022/07/18 10:29:15;;;;;;;5.60;1.52;;;;;;;28.24;25.72;98006.00;4986112;28;20521;-69
2022/07/18 10:32:01;;;;;;;5.10;2.10;;;;;;;28.20;25.64;98007.06;4972367;28;20161;-71
2022/07/18 10:34:35;;;;;;;4.05;1.95;;;;;;;28.11;25.16;98005.22;4980189;28;20561;-68
2022/07/18 10:37:03;;;;;;;4.57;1.40;;;;;;;28.07;25.32;98000.75;4998348;28;20100;-69
2022/07/18 10:39:34;;;;;;;5.20;2.00;;;;;;;27.94;25.91;98003.56;4985622;28;20045;-69
2022/07/18 10:42:01;;;;;;;4.63;1.60;;;;;;;27.98;25.66;97996.13;4984707;28;20046;-69
2022/07/18 10:44:28;;;;;;;3.17;1.73;;;;;;;28.00;25.30;97995.75;4984586;28;20525;-69
2022/07/18 10:47:24;;;;;;;4.47;1.77;;;;;;;28.16;25.67;97995.81;4985246;28;20067;-70
2022/07/18 10:49:51;;;;;;;4.85;1.83;;;;;;;28.46;25.77;97995.47;4981732;28;20525;-69
2022/07/18 10:52:24;;;;;;;5.10;2.00;;;;;;;28.72;25.32;97991.38;4983954;28;20074;-71
2022/07/18 10:55:03;;;;;;;4.32;1.92;;;;;;;28.77;24.59;97984.72;4984841;28;20046;-72
2022/07/18 10:57:32;;;;;;;7.30;1.98;;;;;;;28.99;24.55;97988.88;4984012;28;20050;-69
2022/07/18 11:00:09;;;;;;;11.43;2.60;;;;;;;28.96;24.76;97986.81;4984827;28;20050;-72
2022/07/18 11:02:40;;;;;;;8.00;1.98;;;;;;;29.04;24.80;97991.38;4984009;28;20074;-69
2022/07/18 11:05:24;;;;;;;6.10;1.80;;;;;;;28.81;24.65;97980.03;4984671;28;20080;-72
2022/07/18 11:08:06;;;;;;;7.53;1.75;;;;;;;28.86;24.98;97979.78;4984073;28;20068;-70
2022/07/18 11:10:42;;;;;;;4.75;1.95;;;;;;;28.97;24.66;97974.50;4979259;28;20042;-69
2022/07/18 11:13:25;;;;;;;5.60;1.90;;;;;;;29.16;24.03;97976.56;4984261;28;20563;-69
2022/07/18 11:16:07;;;;;;;6.82;1.80;;;;;;;29.13;24.47;97968.91;4984424;28;20046;-69
2022/07/18 11:18:40;;;;;;;3.33;1.50;;;;;;;29.18;23.80;97967.81;4984451;28;20050;-70
2022/07/18 11:21:23;;;;;;;4.72;1.80;;;;;;;29.11;23.97;97964.88;4971384;28;20124;-70
2022/07/18 11:23:53;;;;;;;6.40;1.88;;;;;;;29.26;24.29;97958.44;4984689;28;20598;-69
2022/07/18 11:26:22;;;;;;;5.70;1.85;;;;;;;29.42;23.95;97958.44;4977087;28;20466;-70
2022/07/18 11:28:58;;;;;;;4.90;1.95;;;;;;;29.71;23.28;97955.47;4984272;28;20129;-68
2022/07/18 11:31:26;;;;;;;5.75;1.60;;;;;;;29.71;23.67;97945.09;4982448;28;20101;-68
2022/07/18 11:33:53;;;;;;;4.82;1.85;;;;;;;29.90;23.42;97956.66;4985933;28;20655;-68
2022/07/18 11:36:22;;;;;;;3.38;1.90;;;;;;;30.02;23.23;97950.09;4986374;28;20053;-68
2022/07/18 11:38:52;;;;;;;4.13;1.63;;;;;;;30.14;22.85;97951.97;4982549;28;20065;-68
2022/07/18 11:41:20;;;;;;;3.42;1.80;;;;;;;30.29;22.54;97950.25;4984560;28;20053;-68
2022/07/18 11:43:49;;;;;;;5.15;1.83;;;;;;;30.42;22.75;97948.09;4984142;28;20536;-68